createdAt,value
2023-04-17T00:00:39.733Z,11.85
2023-04-17T00:03:07.932Z,11.75
2023-04-17T00:05:40.340Z,11.82
2023-04-17T00:08:11.365Z,11.78
2023-04-17T00:10:39.312Z,11.74
2023-04-17T00:13:07.174Z,11.67
2023-04-17T00:15:35.171Z,11.62
2023-04-17T00:18:03.455Z,11.58
2023-04-17T00:20:31.382Z,11.54
2023-04-17T00:23:01.014Z,11.55
2023-04-17T00:25:28.938Z,11.34
2023-04-17T00:27:57.998Z,11.38
2023-04-17T00:30:26.166Z,11.55
2023-04-17T00:32:55.913Z,11.62
2023-04-17T00:35:23.896Z,11.66
2023-04-17T00:37:52.172Z,11.67
2023-04-17T00:40:21.662Z,11.72
2023-04-17T00:42:53.301Z,11.76
2023-04-17T00:45:21.689Z,11.73
2023-04-17T00:47:50.658Z,11.68
2023-04-17T00:50:19.614Z,11.69
2023-04-17T00:52:48.526Z,11.70
2023-04-17T00:55:17.061Z,11.70
2023-04-17T00:57:49.251Z,11.69
2023-04-17T01:00:18.316Z,11.68
2023-04-17T01:02:47.438Z,11.66
2023-04-17T01:05:15.770Z,11.68
2023-04-17T01:07:43.841Z,11.66
2023-04-17T01:10:12.132Z,11.65
2023-04-17T01:12:40.796Z,11.56
2023-04-17T01:15:10.870Z,11.53
2023-04-17T01:17:38.778Z,11.53
2023-04-17T01:20:09.264Z,11.49
2023-04-17T01:22:37.303Z,11.33
2023-04-17T01:25:07.187Z,11.44
2023-04-17T01:27:35.918Z,11.45
2023-04-17T01:30:04.052Z,11.49
2023-04-17T01:32:31.968Z,11.48
2023-04-17T01:35:00.231Z,11.48
2023-04-17T01:37:28.475Z,11.45
2023-04-17T01:39:56.772Z,11.44
2023-04-17T01:42:26.412Z,11.41
2023-04-17T01:44:54.649Z,11.45
2023-04-17T01:47:22.555Z,11.45
2023-04-17T01:49:50.602Z,11.45
2023-04-17T01:52:18.703Z,11.46
2023-04-17T01:54:46.552Z,11.49
2023-04-17T01:57:14.543Z,11.51
2023-04-17T01:59:43.947Z,11.52
2023-04-17T02:02:12.106Z,11.51
2023-04-17T02:04:40.260Z,11.51
2023-04-17T02:07:08.274Z,11.42
2023-04-17T02:09:39.363Z,11.39
2023-04-17T02:12:08.186Z,11.39
2023-04-17T02:14:36.191Z,11.34
2023-04-17T02:17:05.490Z,11.26
2023-04-17T02:19:33.488Z,11.27
2023-04-17T02:22:01.488Z,11.27
2023-04-17T02:24:29.452Z,11.21
2023-04-17T02:26:58.015Z,11.14
2023-04-17T02:29:25.987Z,11.21
2023-04-17T02:31:53.928Z,11.23
2023-04-17T02:34:23.369Z,11.24
2023-04-17T02:36:51.247Z,11.26
2023-04-17T02:39:19.145Z,11.20
2023-04-17T02:41:47.096Z,11.21
2023-04-17T02:44:15.024Z,11.13
2023-04-17T02:46:42.962Z,11.10
2023-04-17T02:49:11.052Z,11.05
2023-04-17T02:51:40.480Z,11.09
2023-04-17T02:54:08.513Z,11.07
2023-04-17T02:56:36.545Z,11.13
2023-04-17T02:59:04.530Z,11.04
2023-04-17T03:01:34.030Z,11.06
2023-04-17T03:04:03.317Z,11.06
2023-04-17T03:06:31.354Z,11.06
2023-04-17T03:09:00.772Z,11.05
2023-04-17T03:11:28.934Z,11.04
2023-04-17T03:13:56.786Z,11.03
2023-04-17T03:16:24.736Z,11.09
2023-04-17T03:18:53.106Z,11.11
2023-04-17T03:21:21.954Z,11.14
2023-04-17T03:23:49.924Z,11.17
2023-04-17T03:26:19.648Z,11.13
2023-04-17T03:28:47.722Z,11.13
2023-04-17T03:31:15.824Z,11.10
2023-04-17T03:33:43.937Z,11.10
2023-04-17T03:36:12.149Z,11.09
2023-04-17T03:38:40.085Z,11.03
2023-04-17T03:41:08.170Z,10.99
2023-04-17T03:43:37.528Z,11.04
2023-04-17T03:46:06.773Z,11.07
2023-04-17T03:48:34.821Z,11.05
2023-04-17T03:51:02.732Z,11.10
2023-04-17T03:53:30.960Z,11.05
2023-04-17T03:55:59.436Z,11.06
2023-04-17T03:58:27.408Z,10.94
2023-04-17T04:00:58.564Z,10.90
2023-04-17T04:03:26.884Z,10.93
2023-04-17T04:05:55.226Z,10.95
2023-04-17T04:08:23.362Z,10.95
2023-04-17T04:10:51.422Z,10.93
2023-04-17T04:13:19.482Z,10.93
2023-04-17T04:15:47.586Z,10.95
2023-04-17T04:18:17.546Z,10.92
2023-04-17T04:20:45.954Z,10.96
2023-04-17T04:23:16.755Z,10.92
2023-04-17T04:25:45.232Z,10.83
2023-04-17T04:28:13.306Z,10.93
2023-04-17T04:30:41.197Z,11.01
2023-04-17T04:33:09.295Z,10.92
2023-04-17T04:35:38.686Z,10.92
2023-04-17T04:38:06.693Z,10.96
2023-04-17T04:40:38.260Z,10.98
2023-04-17T04:43:06.906Z,10.88
2023-04-17T04:45:34.800Z,10.93
2023-04-17T04:48:03.603Z,11.01
2023-04-17T04:50:31.633Z,10.91
2023-04-17T04:53:00.949Z,10.94
2023-04-17T04:55:30.883Z,11.01
2023-04-17T04:57:58.950Z,11.02
2023-04-17T05:00:27.078Z,11.01
2023-04-17T05:02:55.277Z,11.07
2023-04-17T05:05:25.373Z,11.07
2023-04-17T05:07:55.037Z,11.12
2023-04-17T05:10:24.488Z,10.94
2023-04-17T05:12:52.350Z,10.78
2023-04-17T05:15:20.396Z,10.83
2023-04-17T05:17:48.330Z,10.99
2023-04-17T05:20:16.915Z,11.04
2023-04-17T05:22:44.861Z,11.13
2023-04-17T05:25:12.801Z,11.16
2023-04-17T05:27:42.662Z,11.26
2023-04-17T05:30:11.556Z,11.20
2023-04-17T05:32:39.607Z,11.28
2023-04-17T05:35:07.919Z,11.38
2023-04-17T05:37:35.988Z,11.48
2023-04-17T05:40:07.170Z,11.55
2023-04-17T05:42:35.805Z,11.55
2023-04-17T05:45:05.923Z,11.64
2023-04-17T05:47:33.878Z,11.66
2023-04-17T05:50:02.013Z,11.78
2023-04-17T05:52:30.030Z,11.84
2023-04-17T05:54:57.926Z,11.83
2023-04-17T05:57:26.069Z,11.94
2023-04-17T05:59:53.987Z,12.04
2023-04-17T06:02:23.590Z,12.04
2023-04-17T06:04:52.110Z,12.06
2023-04-17T06:07:20.762Z,12.06
2023-04-17T06:09:48.754Z,12.04
2023-04-17T06:12:16.924Z,12.12
2023-04-17T06:14:44.865Z,12.34
2023-04-17T06:17:13.447Z,12.44
2023-04-17T06:19:42.921Z,12.56
2023-04-17T06:22:10.977Z,12.44
2023-04-17T06:24:39.372Z,12.33
2023-04-17T06:27:07.306Z,12.27
2023-04-17T06:29:35.321Z,12.61
2023-04-17T06:32:03.251Z,12.77
2023-04-17T06:34:31.320Z,12.85
2023-04-17T06:37:00.764Z,13.18
2023-04-17T06:39:28.750Z,13.23
2023-04-17T06:41:56.998Z,13.46
2023-04-17T06:44:24.958Z,13.41
2023-04-17T06:46:53.678Z,13.25
2023-04-17T06:49:21.823Z,13.29
2023-04-17T06:51:49.809Z,13.37
2023-04-17T06:54:19.229Z,13.41
2023-04-17T06:56:47.280Z,13.33
2023-04-17T06:59:15.229Z,13.45
2023-04-17T07:01:43.249Z,13.35
2023-04-17T07:04:11.630Z,13.38
2023-04-17T07:06:39.760Z,13.71
2023-04-17T07:09:07.660Z,15.27
2023-04-17T07:11:37.229Z,17.21
2023-04-17T07:14:05.909Z,18.40
2023-04-17T07:16:33.923Z,19.13
2023-04-17T07:19:02.064Z,19.30
2023-04-17T07:21:30.024Z,19.92
2023-04-17T07:23:57.904Z,20.04
2023-04-17T07:26:25.787Z,21.46
2023-04-17T07:28:55.138Z,21.50
2023-04-17T07:31:23.372Z,21.65
2023-04-17T07:33:51.438Z,22.41
2023-04-17T07:36:19.522Z,23.50
2023-04-17T07:38:47.792Z,23.28
2023-04-17T07:41:15.826Z,24.15
2023-04-17T07:43:43.662Z,23.50
2023-04-17T07:46:13.057Z,24.13
2023-04-17T07:48:41.499Z,25.07
2023-04-17T07:51:09.380Z,25.40
2023-04-17T07:53:38.614Z,25.81
2023-04-17T07:56:07.177Z,26.62
2023-04-17T07:58:36.399Z,26.33
2023-04-17T08:01:07.225Z,25.64
2023-04-17T08:03:36.823Z,24.94
2023-04-17T08:06:04.930Z,26.03
2023-04-17T08:08:33.076Z,25.82
2023-04-17T08:11:01.031Z,25.53
2023-04-17T08:13:30.995Z,25.85
2023-04-17T08:15:59.610Z,26.81
2023-04-17T08:18:27.937Z,25.51
2023-04-17T08:20:57.256Z,25.61
2023-04-17T08:23:25.220Z,25.21
2023-04-17T08:25:53.135Z,25.47
2023-04-17T08:28:23.229Z,26.61
2023-04-17T08:30:51.222Z,26.65
2023-04-17T08:33:19.340Z,26.83
2023-04-17T08:35:47.407Z,26.67
2023-04-17T08:38:16.930Z,25.62
2023-04-17T08:40:47.164Z,25.34
2023-04-17T08:43:16.577Z,25.35
2023-04-17T08:45:53.641Z,25.57
2023-04-17T08:48:22.665Z,26.01
2023-04-17T08:50:53.122Z,25.91
2023-04-17T08:53:22.876Z,25.57
2023-04-17T08:55:50.952Z,26.03
2023-04-17T08:58:21.945Z,26.41
2023-04-17T09:00:50.556Z,26.65
2023-04-17T09:03:18.576Z,26.74
2023-04-17T09:05:47.011Z,26.00
2023-04-17T09:08:19.176Z,26.24
2023-04-17T09:10:49.959Z,26.71
2023-04-17T09:13:19.699Z,26.42
2023-04-17T09:15:49.734Z,26.20
2023-04-17T09:18:30.954Z,26.01
2023-04-17T09:21:00.090Z,25.31
2023-04-17T09:23:31.518Z,25.28
2023-04-17T09:26:11.672Z,24.94
2023-04-17T09:28:40.736Z,24.43
2023-04-17T09:31:26.293Z,23.99
2023-04-17T09:33:59.024Z,24.73
2023-04-17T09:36:31.166Z,25.25
2023-04-17T09:39:01.100Z,24.49
2023-04-17T09:41:31.750Z,23.82
2023-04-17T09:44:05.407Z,23.03
2023-04-17T09:46:38.211Z,22.68
2023-04-17T09:49:15.368Z,21.90
2023-04-17T09:51:46.729Z,21.19
2023-04-17T09:54:17.246Z,21.08
2023-04-17T09:56:49.645Z,21.06
2023-04-17T09:59:17.696Z,20.50
2023-04-17T10:01:46.778Z,20.28
2023-04-17T10:04:15.395Z,20.35
2023-04-17T10:06:44.522Z,20.08
2023-04-17T10:09:13.007Z,20.12
2023-04-17T10:11:43.748Z,20.30
2023-04-17T10:14:21.146Z,20.23
2023-04-17T10:16:49.339Z,19.98
2023-04-17T10:19:31.572Z,19.94
2023-04-17T10:22:34.156Z,19.71
2023-04-17T10:25:24.825Z,19.71
2023-04-17T10:27:54.636Z,19.96
2023-04-17T10:30:24.787Z,19.45
2023-04-17T10:33:22.088Z,19.40
2023-04-17T10:35:50.535Z,19.16
2023-04-17T10:38:32.386Z,19.18
2023-04-17T10:41:04.474Z,18.99
2023-04-17T10:43:33.293Z,19.09
2023-04-17T10:46:07.296Z,18.94
2023-04-17T10:48:38.810Z,18.67
2023-04-17T10:51:41.865Z,18.61
2023-04-17T10:54:13.743Z,18.76
2023-04-17T10:56:44.904Z,18.43
2023-04-17T10:59:14.300Z,18.06
2023-04-17T11:02:00.948Z,17.77
2023-04-17T11:04:31.306Z,18.00
2023-04-17T11:06:59.872Z,17.99
2023-04-17T11:09:30.492Z,17.82
2023-04-17T11:12:01.733Z,17.99
2023-04-17T11:14:30.334Z,17.73
2023-04-17T11:17:00.035Z,17.31
2023-04-17T11:19:28.434Z,17.33
2023-04-17T11:22:00.262Z,17.25
2023-04-17T11:24:29.843Z,17.14
2023-04-17T11:27:01.116Z,17.34
2023-04-17T11:29:29.399Z,17.14
2023-04-17T11:32:01.466Z,17.38
2023-04-17T11:34:30.407Z,17.49
2023-04-17T11:37:00.420Z,17.40
2023-04-17T11:39:31.303Z,17.31
2023-04-17T11:42:02.066Z,17.08
2023-04-17T11:44:30.565Z,16.92
2023-04-17T11:47:00.247Z,17.01
2023-04-17T11:49:29.315Z,16.81
2023-04-17T11:51:58.175Z,16.64
2023-04-17T11:54:29.094Z,16.55
2023-04-17T11:57:01.706Z,16.92
2023-04-17T11:59:33.892Z,17.20
2023-04-17T12:02:04.261Z,17.07
2023-04-17T12:04:34.363Z,16.91
2023-04-17T12:07:03.409Z,16.73
2023-04-17T12:09:32.671Z,16.66
2023-04-17T12:12:01.629Z,16.69
2023-04-17T12:14:29.748Z,16.83
2023-04-17T12:16:57.874Z,16.94
2023-04-17T12:19:29.272Z,16.97
2023-04-17T12:21:59.402Z,16.97
2023-04-17T12:24:27.493Z,16.99
2023-04-17T12:26:56.200Z,16.73
2023-04-17T12:29:36.821Z,16.63
2023-04-17T12:32:11.820Z,16.47
2023-04-17T12:34:41.839Z,16.36
2023-04-17T12:37:10.192Z,16.38
2023-04-17T12:39:38.175Z,16.44
2023-04-17T12:42:06.332Z,16.50
2023-04-17T12:44:34.215Z,16.46
2023-04-17T12:47:02.146Z,16.37
2023-04-17T12:49:30.153Z,16.19
2023-04-17T12:52:02.425Z,16.09
2023-04-17T12:54:31.473Z,16.23
2023-04-17T12:56:59.551Z,16.25
2023-04-17T12:59:27.697Z,16.01
2023-04-17T13:01:55.795Z,16.21
2023-04-17T13:04:24.217Z,16.03
2023-04-17T13:06:52.279Z,15.97
2023-04-17T13:09:21.746Z,15.89
2023-04-17T13:11:49.627Z,15.98
2023-04-17T13:14:17.788Z,16.15
2023-04-17T13:16:46.077Z,15.88
2023-04-17T13:19:14.171Z,15.78
2023-04-17T13:21:42.317Z,15.70
2023-04-17T13:24:14.668Z,15.67
2023-04-17T13:26:44.234Z,15.66
2023-04-17T13:29:12.395Z,15.40
2023-04-17T13:31:40.885Z,15.48
2023-04-17T13:34:08.835Z,15.61
2023-04-17T13:36:36.772Z,15.70
2023-04-17T13:39:05.498Z,15.58
2023-04-17T13:41:43.598Z,15.62
2023-04-17T13:44:11.644Z,15.54
2023-04-17T13:46:39.792Z,15.40
2023-04-17T13:49:08.138Z,15.57
2023-04-17T13:51:36.147Z,15.50
2023-04-17T13:54:04.202Z,15.31
2023-04-17T13:56:32.112Z,15.21
2023-04-17T13:59:01.386Z,15.04
2023-04-17T14:01:29.240Z,15.14
2023-04-17T14:04:01.560Z,15.10
2023-04-17T14:06:31.245Z,15.15
2023-04-17T14:08:59.286Z,15.24
2023-04-17T14:11:27.252Z,15.17
2023-04-17T14:13:55.438Z,15.19
2023-04-17T14:16:24.872Z,15.27
2023-04-17T14:18:53.224Z,15.38
2023-04-17T14:21:22.666Z,15.39
2023-04-17T14:23:52.109Z,15.68
2023-04-17T14:26:20.187Z,15.68
2023-04-17T14:28:48.705Z,15.57
2023-04-17T14:31:16.632Z,15.34
2023-04-17T14:33:45.934Z,15.13
2023-04-17T14:36:14.129Z,15.14
2023-04-17T14:38:42.076Z,14.94
2023-04-17T14:41:10.025Z,14.89
2023-04-17T14:43:38.496Z,14.95
2023-04-17T14:46:06.933Z,14.97
2023-04-17T14:48:44.242Z,15.04
2023-04-17T14:51:27.284Z,14.81
2023-04-17T14:53:55.581Z,15.01
2023-04-17T14:56:27.673Z,15.14
2023-04-17T14:58:58.118Z,15.25
2023-04-17T15:01:27.968Z,15.03
2023-04-17T15:03:56.603Z,14.97
2023-04-17T15:06:26.152Z,14.76
2023-04-17T15:08:54.205Z,14.72
2023-04-17T15:11:25.330Z,14.71
2023-04-17T15:13:53.289Z,14.79
2023-04-17T15:16:25.427Z,14.93
2023-04-17T15:18:53.643Z,14.81
2023-04-17T15:21:23.947Z,14.93
2023-04-17T15:23:53.482Z,14.73
2023-04-17T15:26:23.623Z,14.84
2023-04-17T15:28:51.646Z,14.81
2023-04-17T15:31:23.653Z,14.88
2023-04-17T15:33:51.812Z,15.17
2023-04-17T15:36:19.877Z,14.83
2023-04-17T15:38:47.773Z,14.92
2023-04-17T15:41:17.004Z,14.63
2023-04-17T15:43:44.940Z,14.42
2023-04-17T15:46:12.950Z,14.35
2023-04-17T15:48:40.952Z,14.36
2023-04-17T15:51:09.711Z,14.56
2023-04-17T15:53:37.674Z,14.49
2023-04-17T15:56:06.847Z,14.32
2023-04-17T15:58:36.383Z,14.47
2023-04-17T16:01:04.445Z,14.45
2023-04-17T16:03:32.503Z,14.23
2023-04-17T16:06:00.588Z,14.12
2023-04-17T16:08:28.597Z,14.03
2023-04-17T16:10:56.463Z,13.83
2023-04-17T16:13:24.883Z,13.85
2023-04-17T16:15:54.274Z,13.74
2023-04-17T16:18:26.014Z,13.80
2023-04-17T16:20:54.073Z,14.01
2023-04-17T16:23:23.094Z,13.66
2023-04-17T16:25:51.293Z,13.56
2023-04-17T16:28:19.768Z,13.64
2023-04-17T16:30:47.953Z,13.70
2023-04-17T16:33:17.361Z,13.58
2023-04-17T16:35:45.409Z,13.66
2023-04-17T16:38:13.318Z,13.40
2023-04-17T16:41:03.191Z,13.48
2023-04-17T16:43:31.397Z,13.59
2023-04-17T16:46:01.313Z,13.50
2023-04-17T16:48:35.178Z,13.49
2023-04-17T16:51:06.806Z,13.37
2023-04-17T16:53:34.815Z,13.13
2023-04-17T16:56:02.750Z,13.10
2023-04-17T16:58:30.991Z,13.22
2023-04-17T17:00:59.124Z,13.29
2023-04-17T17:03:27.211Z,13.09
2023-04-17T17:05:57.501Z,12.93
2023-04-17T17:08:25.859Z,12.86
2023-04-17T17:10:54.207Z,12.99
2023-04-17T17:13:23.578Z,13.00
2023-04-17T17:15:54.600Z,12.94
2023-04-17T17:18:26.161Z,12.80
2023-04-17T17:20:56.275Z,12.82
2023-04-17T17:23:26.401Z,12.80
2023-04-17T17:25:55.342Z,12.84
2023-04-17T17:28:24.258Z,12.63
2023-04-17T17:30:59.833Z,12.71
2023-04-17T17:33:27.886Z,12.57
2023-04-17T17:35:55.950Z,12.64
2023-04-17T17:38:28.729Z,12.60
2023-04-17T17:40:57.510Z,12.43
2023-04-17T17:43:25.831Z,12.37
2023-04-17T17:45:54.063Z,12.33
2023-04-17T17:48:22.889Z,12.16
2023-04-17T17:50:55.667Z,12.17
2023-04-17T17:53:27.165Z,12.02
2023-04-17T17:55:59.894Z,11.99
2023-04-17T17:58:28.080Z,11.92
2023-04-17T18:00:56.001Z,11.92
2023-04-17T18:03:25.000Z,12.05
2023-04-17T18:05:53.128Z,12.02
2023-04-17T18:08:21.352Z,11.79
2023-04-17T18:10:53.739Z,11.87
2023-04-17T18:13:22.283Z,11.88
2023-04-17T18:15:50.250Z,11.84
2023-04-17T18:18:18.677Z,11.83
2023-04-17T18:20:46.543Z,11.71
2023-04-17T18:23:14.616Z,11.72
2023-04-17T18:25:42.592Z,11.51
2023-04-17T18:28:11.995Z,11.50
2023-04-17T18:30:40.006Z,11.42
2023-04-17T18:33:08.368Z,11.36
2023-04-17T18:35:36.285Z,11.46
2023-04-17T18:38:04.265Z,11.48
2023-04-17T18:40:32.383Z,11.21
2023-04-17T18:43:00.449Z,11.03
2023-04-17T18:45:29.833Z,10.95
2023-04-17T18:47:57.897Z,11.04
2023-04-17T18:50:27.038Z,11.01
2023-04-17T18:52:54.882Z,10.99
2023-04-17T18:55:23.534Z,10.97
2023-04-17T18:57:51.755Z,11.07
2023-04-17T19:00:19.738Z,10.89
2023-04-17T19:02:49.586Z,10.87
2023-04-17T19:05:17.557Z,10.86
2023-04-17T19:07:46.080Z,10.82
2023-04-17T19:10:14.125Z,10.83
2023-04-17T19:12:43.153Z,10.79
2023-04-17T19:15:12.128Z,10.72
2023-04-17T19:17:40.274Z,10.68
2023-04-17T19:20:11.007Z,10.57
2023-04-17T19:22:38.971Z,10.54
2023-04-17T19:25:07.657Z,10.46
2023-04-17T19:27:35.850Z,10.50
2023-04-17T19:30:06.293Z,10.51
2023-04-17T19:32:34.251Z,10.47
2023-04-17T19:35:02.117Z,10.30
2023-04-17T19:37:31.367Z,10.39
2023-04-17T19:39:59.483Z,10.35
2023-04-17T19:42:27.388Z,10.30
2023-04-17T19:44:55.412Z,10.26
2023-04-17T19:47:24.371Z,10.28
2023-04-17T19:49:52.263Z,10.29
2023-04-17T19:52:20.187Z,10.24
2023-04-17T19:54:51.017Z,10.07
2023-04-17T19:57:19.057Z,10.15
2023-04-17T19:59:47.090Z,10.23
2023-04-17T20:02:16.116Z,10.10
2023-04-17T20:04:45.410Z,10.16
2023-04-17T20:07:13.349Z,10.13
2023-04-17T20:09:41.320Z,9.97
2023-04-17T20:12:10.642Z,9.93
2023-04-17T20:14:38.686Z,10.18
2023-04-17T20:17:06.721Z,10.27
2023-04-17T20:19:34.695Z,10.40
2023-04-17T20:22:02.667Z,10.20
2023-04-17T20:24:30.678Z,10.24
2023-04-17T20:26:59.321Z,10.21
2023-04-17T20:29:28.933Z,10.34
2023-04-17T20:31:56.966Z,10.29
2023-04-17T20:34:26.003Z,10.32
2023-04-17T20:36:53.989Z,10.39
2023-04-17T20:39:21.954Z,10.39
2023-04-17T20:41:49.891Z,10.39
2023-04-17T20:44:18.737Z,10.51
2023-04-17T20:46:48.178Z,10.51
2023-04-17T20:49:16.109Z,10.53
2023-04-17T20:51:44.445Z,10.46
2023-04-17T20:54:12.810Z,10.51
2023-04-17T20:56:40.953Z,10.43
2023-04-17T20:59:08.835Z,10.42
2023-04-17T21:01:37.099Z,10.53
2023-04-17T21:04:06.494Z,10.55
2023-04-17T21:06:34.609Z,10.40
2023-04-17T21:09:02.561Z,10.40
2023-04-17T21:11:30.691Z,10.34
2023-04-17T21:14:00.374Z,10.25
2023-04-17T21:16:28.713Z,10.42
2023-04-17T21:18:56.748Z,10.27
2023-04-17T21:21:26.270Z,10.38
2023-04-17T21:23:56.105Z,10.40
2023-04-17T21:26:24.204Z,10.35
2023-04-17T21:28:52.183Z,10.35
2023-04-17T21:31:20.346Z,10.39
2023-04-17T21:33:48.429Z,10.34
2023-04-17T21:36:16.439Z,10.29
2023-04-17T21:38:46.558Z,10.39
2023-04-17T21:41:14.461Z,10.31
2023-04-17T21:43:42.338Z,10.37
2023-04-17T21:46:11.600Z,10.38
2023-04-17T21:48:40.463Z,10.41
2023-04-17T21:51:08.383Z,10.42
2023-04-17T21:53:38.258Z,10.30
2023-04-17T21:56:08.262Z,10.39
2023-04-17T21:58:36.327Z,10.35
2023-04-17T22:01:04.636Z,10.41
2023-04-17T22:03:32.677Z,10.34
2023-04-17T22:06:00.685Z,10.34
2023-04-17T22:08:28.650Z,10.44
2023-04-17T22:10:56.651Z,10.43
2023-04-17T22:13:26.326Z,10.45
2023-04-17T22:15:55.240Z,10.46
2023-04-17T22:18:24.220Z,10.50
2023-04-17T22:20:52.064Z,10.41
2023-04-17T22:23:19.992Z,10.36
2023-04-17T22:25:47.870Z,10.40
2023-04-17T22:28:15.963Z,10.37
2023-04-17T22:30:45.462Z,10.24
2023-04-17T22:33:13.394Z,10.21
2023-04-17T22:35:41.265Z,10.07
2023-04-17T22:38:09.289Z,9.95
2023-04-17T22:40:37.773Z,9.99
2023-04-17T22:43:05.780Z,9.99
2023-04-17T22:45:33.957Z,10.05
2023-04-17T22:48:03.238Z,10.05
2023-04-17T22:50:32.519Z,10.00
2023-04-17T22:53:00.597Z,9.94
2023-04-17T22:55:28.558Z,9.87
2023-04-17T22:57:56.440Z,9.88
2023-04-17T23:00:25.501Z,9.96
2023-04-17T23:02:53.557Z,10.00
2023-04-17T23:05:23.174Z,9.98
2023-04-17T23:07:51.434Z,9.94
2023-04-17T23:10:19.382Z,9.95
2023-04-17T23:12:47.616Z,9.82
2023-04-17T23:15:15.489Z,9.84
2023-04-17T23:17:43.404Z,9.73
2023-04-17T23:20:12.728Z,9.77
2023-04-17T23:22:42.082Z,9.81
2023-04-17T23:25:11.042Z,9.64
2023-04-17T23:27:39.036Z,9.58
2023-04-17T23:30:08.378Z,9.48
2023-04-17T23:32:36.374Z,9.52
2023-04-17T23:35:04.669Z,9.51
2023-04-17T23:37:32.607Z,9.36
2023-04-17T23:40:03.261Z,9.41
2023-04-17T23:42:31.478Z,9.37
2023-04-17T23:44:59.915Z,9.37
2023-04-17T23:47:27.855Z,9.23
2023-04-17T23:49:56.184Z,9.10
2023-04-17T23:52:24.457Z,9.12
2023-04-17T23:54:52.502Z,9.14
2023-04-17T23:57:22.376Z,9.09
2023-04-17T23:59:53.285Z,9.13
